CheckWX is a tool to help pilots better visualize weather data.  It is not intended as a substitute for an official pre-flight weather briefing.

15:37:50 UTC

KFLO METAR
Florence Regional Airport
Florence, South Carolina, USA
Current

45 mins ago

KFLO 241453Z 25008KT 10SM CLR 31/22 A2998 RMK AO2 SLP149 T03110217 50002
Observed
Jun-24 @ 14:53 UTC
Wind
  • 250° at 8 KTS
Visibility
10 SM
Flight Rules
VFR
Cloud Levels
  • Clear skies
Temperature
31°C / 88°F
Dewpoint
22°C / 72°F
Heat Index
35°C / 95°F
Humidity
59%
Altimeter
29.98" Hg
Pressure
1015.22 hPa
Previous

2 hours ago

KFLO 241353Z 27013KT 10SM CLR 30/21 A2998 RMK AO2 SLP150 T03000206
Observed
Jun-24 @ 13:53 UTC
Wind
  • 270° at 13 KTS
Visibility
10 SM
Flight Rules
VFR
Cloud Levels
  • Clear skies
Temperature
30°C / 86°F
Dewpoint
21°C / 70°F
Heat Index
33°C / 91°F
Humidity
59%
Altimeter
29.98" Hg
Pressure
1015.22 hPa
Previous

3 hours ago

KFLO 241253Z 27006KT 10SM CLR 28/21 A2998 RMK AO2 SLP148 T02780211
Observed
Jun-24 @ 12:53 UTC
Wind
  • 270° at 6 KTS
Visibility
10 SM
Flight Rules
VFR
Cloud Levels
  • Clear skies
Temperature
28°C / 82°F
Dewpoint
21°C / 70°F
Heat Index
30°C / 86°F
Humidity
66%
Altimeter
29.98" Hg
Pressure
1015.22 hPa